sensor_id;sensor_type;location;lat;lon;timestamp;temperature;humidity
3466;DHT22;1747;48.884;9.160;2024-02-15T00:01:04;12.60;99.90
3466;DHT22;1747;48.884;9.160;2024-02-15T00:03:31;12.60;99.90
3466;DHT22;1747;48.884;9.160;2024-02-15T00:06:00;12.60;99.90
3466;DHT22;1747;48.884;9.160;2024-02-15T00:08:29;12.50;99.90
3466;DHT22;1747;48.884;9.160;2024-02-15T00:10:56;12.50;99.90
3466;DHT22;1747;48.884;9.160;2024-02-15T00:13:23;12.40;99.90
3466;DHT22;1747;48.884;9.160;2024-02-15T00:15:51;12.40;99.90
3466;DHT22;1747;48.884;9.160;2024-02-15T00:18:18;12.30;99.90
3466;DHT22;1747;48.884;9.160;2024-02-15T00:20:45;12.40;99.90
3466;DHT22;1747;48.884;9.160;2024-02-15T00:23:12;12.40;99.90
3466;DHT22;1747;48.884;9.160;2024-02-15T00:25:39;12.30;99.90
3466;DHT22;1747;48.884;9.160;2024-02-15T00:28:09;12.30;99.90
3466;DHT22;1747;48.884;9.160;2024-02-15T00:30:35;12.30;99.90
3466;DHT22;1747;48.884;9.160;2024-02-15T00:33:04;12.30;99.90
3466;DHT22;1747;48.884;9.160;2024-02-15T00:35:31;12.20;99.90
3466;DHT22;1747;48.884;9.160;2024-02-15T00:37:58;12.20;99.90
3466;DHT22;1747;48.884;9.160;2024-02-15T00:40:25;12.20;99.90
3466;DHT22;1747;48.884;9.160;2024-02-15T00:42:52;12.20;99.90
3466;DHT22;1747;48.884;9.160;2024-02-15T00:45:18;12.20;99.90
3466;DHT22;1747;48.884;9.160;2024-02-15T00:47:45;12.20;99.90
3466;DHT22;1747;48.884;9.160;2024-02-15T00:50:14;12.20;99.90
3466;DHT22;1747;48.884;9.160;2024-02-15T00:52:41;12.20;99.90
3466;DHT22;1747;48.884;9.160;2024-02-15T00:55:08;12.10;99.90
3466;DHT22;1747;48.884;9.160;2024-02-15T00:57:35;12.10;99.90
3466;DHT22;1747;48.884;9.160;2024-02-15T01:00:02;12.10;99.90
3466;DHT22;1747;48.884;9.160;2024-02-15T01:02:29;12.10;99.90
3466;DHT22;1747;48.884;9.160;2024-02-15T01:04:56;12.20;99.90
3466;DHT22;1747;48.884;9.160;2024-02-15T01:07:25;12.20;99.90
3466;DHT22;1747;48.884;9.160;2024-02-15T01:09:53;12.20;99.90
3466;DHT22;1747;48.884;9.160;2024-02-15T01:12:20;12.20;99.90
3466;DHT22;1747;48.884;9.160;2024-02-15T01:14:47;12.20;99.90
3466;DHT22;1747;48.884;9.160;2024-02-15T01:17:14;12.30;99.90
3466;DHT22;1747;48.884;9.160;2024-02-15T01:19:42;12.50;99.90
3466;DHT22;1747;48.884;9.160;2024-02-15T01:22:09;12.50;99.90
3466;DHT22;1747;48.884;9.160;2024-02-15T01:24:37;12.50;99.90
3466;DHT22;1747;48.884;9.160;2024-02-15T01:27:04;12.50;99.90
3466;DHT22;1747;48.884;9.160;2024-02-15T01:29:32;12.50;99.90
3466;DHT22;1747;48.884;9.160;2024-02-15T01:32:00;12.50;99.90
3466;DHT22;1747;48.884;9.160;2024-02-15T01:34:27;12.40;99.90
3466;DHT22;1747;48.884;9.160;2024-02-15T01:36:54;12.40;99.90
3466;DHT22;1747;48.884;9.160;2024-02-15T01:39:21;12.50;99.90
3466;DHT22;1747;48.884;9.160;2024-02-15T01:41:49;12.40;99.90
3466;DHT22;1747;48.884;9.160;2024-02-15T01:44:17;12.40;99.90
3466;DHT22;1747;48.884;9.160;2024-02-15T01:46:47;12.30;99.90
3466;DHT22;1747;48.884;9.160;2024-02-15T01:49:15;12.30;99.90
3466;DHT22;1747;48.884;9.160;2024-02-15T01:51:42;12.10;99.90
3466;DHT22;1747;48.884;9.160;2024-02-15T01:54:10;12.00;99.90
3466;DHT22;1747;48.884;9.160;2024-02-15T01:56:38;11.90;99.90
3466;DHT22;1747;48.884;9.160;2024-02-15T01:59:06;11.80;99.90
3466;DHT22;1747;48.884;9.160;2024-02-15T02:01:33;11.80;99.90
3466;DHT22;1747;48.884;9.160;2024-02-15T02:04:01;11.70;99.90
3466;DHT22;1747;48.884;9.160;2024-02-15T02:06:28;11.60;99.90
3466;DHT22;1747;48.884;9.160;2024-02-15T02:08:55;11.60;99.90
3466;DHT22;1747;48.884;9.160;2024-02-15T02:11:22;11.50;99.90
3466;DHT22;1747;48.884;9.160;2024-02-15T02:13:49;11.40;99.90
3466;DHT22;1747;48.884;9.160;2024-02-15T02:16:28;11.30;99.90
3466;DHT22;1747;48.884;9.160;2024-02-15T02:18:57;11.20;99.90
3466;DHT22;1747;48.884;9.160;2024-02-15T02:21:25;11.10;99.90
3466;DHT22;1747;48.884;9.160;2024-02-15T02:23:55;11.10;99.90
3466;DHT22;1747;48.884;9.160;2024-02-15T02:26:25;11.00;99.90
3466;DHT22;1747;48.884;9.160;2024-02-15T02:28:52;10.90;99.90
3466;DHT22;1747;48.884;9.160;2024-02-15T02:31:20;10.90;99.90
3466;DHT22;1747;48.884;9.160;2024-02-15T02:33:48;10.80;99.90
3466;DHT22;1747;48.884;9.160;2024-02-15T02:36:17;10.80;99.90
3466;DHT22;1747;48.884;9.160;2024-02-15T02:38:44;10.70;99.90
3466;DHT22;1747;48.884;9.160;2024-02-15T02:41:11;10.70;99.90
3466;DHT22;1747;48.884;9.160;2024-02-15T02:43:40;10.70;99.90
3466;DHT22;1747;48.884;9.160;2024-02-15T02:46:10;10.70;99.90
3466;DHT22;1747;48.884;9.160;2024-02-15T02:48:37;10.70;99.90
3466;DHT22;1747;48.884;9.160;2024-02-15T02:51:04;10.70;99.90
3466;DHT22;1747;48.884;9.160;2024-02-15T02:53:31;10.70;99.90
3466;DHT22;1747;48.884;9.160;2024-02-15T02:55:58;10.70;99.90
3466;DHT22;1747;48.884;9.160;2024-02-15T02:58:25;10.70;99.90
3466;DHT22;1747;48.884;9.160;2024-02-15T03:00:53;10.60;99.90
3466;DHT22;1747;48.884;9.160;2024-02-15T03:03:20;10.60;99.90
3466;DHT22;1747;48.884;9.160;2024-02-15T03:05:48;10.60;99.90
3466;DHT22;1747;48.884;9.160;2024-02-15T03:08:15;10.60;99.90
3466;DHT22;1747;48.884;9.160;2024-02-15T03:10:42;10.60;99.90
3466;DHT22;1747;48.884;9.160;2024-02-15T03:13:09;10.60;99.90
3466;DHT22;1747;48.884;9.160;2024-02-15T03:15:37;10.50;99.90
3466;DHT22;1747;48.884;9.160;2024-02-15T03:18:05;10.50;99.90
3466;DHT22;1747;48.884;9.160;2024-02-15T03:20:34;10.40;99.90
3466;DHT22;1747;48.884;9.160;2024-02-15T03:23:03;10.30;99.90
3466;DHT22;1747;48.884;9.160;2024-02-15T03:25:30;10.20;99.90
3466;DHT22;1747;48.884;9.160;2024-02-15T03:28:00;10.20;99.90
3466;DHT22;1747;48.884;9.160;2024-02-15T03:30:31;10.20;99.90
3466;DHT22;1747;48.884;9.160;2024-02-15T03:32:59;10.10;99.90
3466;DHT22;1747;48.884;9.160;2024-02-15T03:35:28;10.10;99.90
3466;DHT22;1747;48.884;9.160;2024-02-15T03:37:57;10.10;99.90
3466;DHT22;1747;48.884;9.160;2024-02-15T03:40:24;10.10;99.90
3466;DHT22;1747;48.884;9.160;2024-02-15T03:42:52;10.10;99.90
3466;DHT22;1747;48.884;9.160;2024-02-15T03:45:19;10.10;99.90
3466;DHT22;1747;48.884;9.160;2024-02-15T03:47:46;10.10;99.90
3466;DHT22;1747;48.884;9.160;2024-02-15T03:50:15;10.20;99.90
3466;DHT22;1747;48.884;9.160;2024-02-15T03:52:45;10.20;99.90
3466;DHT22;1747;48.884;9.160;2024-02-15T03:55:23;10.20;99.90
3466;DHT22;1747;48.884;9.160;2024-02-15T04:00:56;10.30;99.90
3466;DHT22;1747;48.884;9.160;2024-02-15T04:03:23;10.40;99.90
3466;DHT22;1747;48.884;9.160;2024-02-15T04:05:50;10.40;99.90
3466;DHT22;1747;48.884;9.160;2024-02-15T04:08:18;10.40;99.90
3466;DHT22;1747;48.884;9.160;2024-02-15T04:10:45;10.40;99.90
3466;DHT22;1747;48.884;9.160;2024-02-15T04:13:12;10.50;99.90
3466;DHT22;1747;48.884;9.160;2024-02-15T04:15:39;10.40;99.90
3466;DHT22;1747;48.884;9.160;2024-02-15T04:18:07;10.40;99.90
3466;DHT22;1747;48.884;9.160;2024-02-15T04:20:34;10.50;99.90
3466;DHT22;1747;48.884;9.160;2024-02-15T04:23:01;10.50;99.90
3466;DHT22;1747;48.884;9.160;2024-02-15T04:25:29;10.50;99.90
3466;DHT22;1747;48.884;9.160;2024-02-15T04:27:57;10.80;99.90
3466;DHT22;1747;48.884;9.160;2024-02-15T04:30:29;11.00;99.90
3466;DHT22;1747;48.884;9.160;2024-02-15T04:32:56;11.20;99.90
3466;DHT22;1747;48.884;9.160;2024-02-15T04:35:23;11.30;99.90
3466;DHT22;1747;48.884;9.160;2024-02-15T04:37:52;11.30;99.90
3466;DHT22;1747;48.884;9.160;2024-02-15T04:40:19;11.30;99.90
3466;DHT22;1747;48.884;9.160;2024-02-15T04:42:47;11.30;99.90
3466;DHT22;1747;48.884;9.160;2024-02-15T04:45:24;11.30;99.90
3466;DHT22;1747;48.884;9.160;2024-02-15T04:48:31;11.30;99.90
3466;DHT22;1747;48.884;9.160;2024-02-15T04:51:00;11.30;99.90
3466;DHT22;1747;48.884;9.160;2024-02-15T04:53:26;11.20;99.90
3466;DHT22;1747;48.884;9.160;2024-02-15T04:55:55;11.30;99.90
3466;DHT22;1747;48.884;9.160;2024-02-15T04:58:23;11.30;99.90
3466;DHT22;1747;48.884;9.160;2024-02-15T05:00:50;11.30;99.90
3466;DHT22;1747;48.884;9.160;2024-02-15T05:03:20;11.30;99.90
3466;DHT22;1747;48.884;9.160;2024-02-15T05:05:47;11.30;99.90
3466;DHT22;1747;48.884;9.160;2024-02-15T05:08:14;11.30;99.90
3466;DHT22;1747;48.884;9.160;2024-02-15T05:10:41;11.40;99.90
3466;DHT22;1747;48.884;9.160;2024-02-15T05:13:07;11.50;99.90
3466;DHT22;1747;48.884;9.160;2024-02-15T05:15:41;11.50;99.90
3466;DHT22;1747;48.884;9.160;2024-02-15T05:18:08;11.50;99.90
3466;DHT22;1747;48.884;9.160;2024-02-15T05:20:35;11.60;99.90
3466;DHT22;1747;48.884;9.160;2024-02-15T05:23:02;11.60;99.90
3466;DHT22;1747;48.884;9.160;2024-02-15T05:25:29;11.70;99.90
3466;DHT22;1747;48.884;9.160;2024-02-15T05:27:58;11.70;99.90
3466;DHT22;1747;48.884;9.160;2024-02-15T05:30:25;11.80;99.90
3466;DHT22;1747;48.884;9.160;2024-02-15T05:32:53;11.80;99.90
3466;DHT22;1747;48.884;9.160;2024-02-15T05:35:20;11.80;99.90
3466;DHT22;1747;48.884;9.160;2024-02-15T05:37:47;11.80;99.90
3466;DHT22;1747;48.884;9.160;2024-02-15T05:40:14;11.80;99.90
3466;DHT22;1747;48.884;9.160;2024-02-15T05:42:42;11.70;99.90
3466;DHT22;1747;48.884;9.160;2024-02-15T05:45:30;11.70;99.90
3466;DHT22;1747;48.884;9.160;2024-02-15T05:48:04;11.50;99.90
3466;DHT22;1747;48.884;9.160;2024-02-15T05:50:34;11.40;99.90
3466;DHT22;1747;48.884;9.160;2024-02-15T05:53:01;11.40;99.90
3466;DHT22;1747;48.884;9.160;2024-02-15T05:55:29;11.30;99.90
3466;DHT22;1747;48.884;9.160;2024-02-15T05:57:59;11.30;99.90
3466;DHT22;1747;48.884;9.160;2024-02-15T06:00:27;11.20;99.90
3466;DHT22;1747;48.884;9.160;2024-02-15T06:02:55;11.20;99.90
3466;DHT22;1747;48.884;9.160;2024-02-15T06:05:25;11.20;99.90
3466;DHT22;1747;48.884;9.160;2024-02-15T06:08:02;11.20;99.90
3466;DHT22;1747;48.884;9.160;2024-02-15T06:10:42;11.30;99.90
3466;DHT22;1747;48.884;9.160;2024-02-15T06:13:18;11.50;99.90
3466;DHT22;1747;48.884;9.160;2024-02-15T06:15:50;11.70;99.90
3466;DHT22;1747;48.884;9.160;2024-02-15T06:18:19;11.60;99.90
3466;DHT22;1747;48.884;9.160;2024-02-15T06:24:08;11.40;99.90
3466;DHT22;1747;48.884;9.160;2024-02-15T06:26:47;11.40;99.90
3466;DHT22;1747;48.884;9.160;2024-02-15T06:30:10;11.30;99.90
3466;DHT22;1747;48.884;9.160;2024-02-15T06:33:03;11.30;99.90
3466;DHT22;1747;48.884;9.160;2024-02-15T06:36:15;11.30;99.90
3466;DHT22;1747;48.884;9.160;2024-02-15T06:39:09;11.30;99.90
3466;DHT22;1747;48.884;9.160;2024-02-15T06:42:02;11.20;99.90
3466;DHT22;1747;48.884;9.160;2024-02-15T06:44:32;11.20;99.90
3466;DHT22;1747;48.884;9.160;2024-02-15T06:47:01;11.20;99.90
3466;DHT22;1747;48.884;9.160;2024-02-15T06:49:46;11.20;99.90
3466;DHT22;1747;48.884;9.160;2024-02-15T06:52:18;11.10;99.90
3466;DHT22;1747;48.884;9.160;2024-02-15T06:54:50;11.10;99.90
3466;DHT22;1747;48.884;9.160;2024-02-15T06:57:18;11.10;99.90
3466;DHT22;1747;48.884;9.160;2024-02-15T06:59:49;11.10;99.90
3466;DHT22;1747;48.884;9.160;2024-02-15T07:02:34;11.10;99.90
3466;DHT22;1747;48.884;9.160;2024-02-15T07:05:07;11.30;99.90
3466;DHT22;1747;48.884;9.160;2024-02-15T07:07:39;11.30;99.90
3466;DHT22;1747;48.884;9.160;2024-02-15T07:10:10;11.30;99.90
3466;DHT22;1747;48.884;9.160;2024-02-15T07:12:39;11.30;99.90
3466;DHT22;1747;48.884;9.160;2024-02-15T07:15:12;11.40;99.90
3466;DHT22;1747;48.884;9.160;2024-02-15T07:17:39;11.30;99.90
3466;DHT22;1747;48.884;9.160;2024-02-15T07:20:10;11.40;99.90
3466;DHT22;1747;48.884;9.160;2024-02-15T07:22:43;11.40;99.90
3466;DHT22;1747;48.884;9.160;2024-02-15T07:25:17;11.40;99.90
3466;DHT22;1747;48.884;9.160;2024-02-15T07:27:45;11.40;99.90
3466;DHT22;1747;48.884;9.160;2024-02-15T07:30:15;11.40;99.90
3466;DHT22;1747;48.884;9.160;2024-02-15T07:32:51;11.40;99.90
3466;DHT22;1747;48.884;9.160;2024-02-15T07:35:25;11.50;99.90
3466;DHT22;1747;48.884;9.160;2024-02-15T07:37:57;11.50;99.90
3466;DHT22;1747;48.884;9.160;2024-02-15T07:40:44;11.50;99.90
3466;DHT22;1747;48.884;9.160;2024-02-15T07:43:15;11.60;99.90
3466;DHT22;1747;48.884;9.160;2024-02-15T07:45:46;11.60;99.90
3466;DHT22;1747;48.884;9.160;2024-02-15T07:48:27;11.70;99.90
3466;DHT22;1747;48.884;9.160;2024-02-15T07:51:01;11.80;99.90
3466;DHT22;1747;48.884;9.160;2024-02-15T07:53:29;11.90;99.90
3466;DHT22;1747;48.884;9.160;2024-02-15T07:55:58;12.10;99.90
3466;DHT22;1747;48.884;9.160;2024-02-15T07:58:43;12.30;99.90
3466;DHT22;1747;48.884;9.160;2024-02-15T08:01:23;12.20;99.90
3466;DHT22;1747;48.884;9.160;2024-02-15T08:04:32;12.30;99.90
3466;DHT22;1747;48.884;9.160;2024-02-15T08:07:21;12.30;99.90
3466;DHT22;1747;48.884;9.160;2024-02-15T08:10:19;12.40;99.90
3466;DHT22;1747;48.884;9.160;2024-02-15T08:13:35;12.60;99.90
3466;DHT22;1747;48.884;9.160;2024-02-15T08:16:13;12.70;99.90
3466;DHT22;1747;48.884;9.160;2024-02-15T08:18:50;12.90;99.90
3466;DHT22;1747;48.884;9.160;2024-02-15T08:21:31;12.90;99.90
3466;DHT22;1747;48.884;9.160;2024-02-15T08:24:09;12.90;99.90
3466;DHT22;1747;48.884;9.160;2024-02-15T08:26:38;12.90;99.90
3466;DHT22;1747;48.884;9.160;2024-02-15T08:29:16;12.90;99.90
3466;DHT22;1747;48.884;9.160;2024-02-15T08:31:48;13.00;99.90
3466;DHT22;1747;48.884;9.160;2024-02-15T08:34:18;12.90;99.90
3466;DHT22;1747;48.884;9.160;2024-02-15T08:36:54;12.90;99.90
3466;DHT22;1747;48.884;9.160;2024-02-15T08:39:31;13.00;99.90
3466;DHT22;1747;48.884;9.160;2024-02-15T08:41:58;13.10;99.90
3466;DHT22;1747;48.884;9.160;2024-02-15T08:47:38;13.30;99.90
3466;DHT22;1747;48.884;9.160;2024-02-15T08:50:11;13.30;99.90
3466;DHT22;1747;48.884;9.160;2024-02-15T08:52:58;13.20;99.90
3466;DHT22;1747;48.884;9.160;2024-02-15T08:55:32;13.20;99.90
3466;DHT22;1747;48.884;9.160;2024-02-15T08:58:36;13.20;99.90
3466;DHT22;1747;48.884;9.160;2024-02-15T09:01:17;13.10;99.90
3466;DHT22;1747;48.884;9.160;2024-02-15T09:04:29;13.20;99.90
3466;DHT22;1747;48.884;9.160;2024-02-15T09:07:48;13.30;99.90
3466;DHT22;1747;48.884;9.160;2024-02-15T09:10:58;13.30;99.90
3466;DHT22;1747;48.884;9.160;2024-02-15T09:16:59;13.30;99.90
3466;DHT22;1747;48.884;9.160;2024-02-15T09:19:40;13.40;99.90
3466;DHT22;1747;48.884;9.160;2024-02-15T09:22:35;13.50;99.90
3466;DHT22;1747;48.884;9.160;2024-02-15T09:25:29;13.50;99.90
3466;DHT22;1747;48.884;9.160;2024-02-15T09:31:51;13.70;99.90
3466;DHT22;1747;48.884;9.160;2024-02-15T09:34:25;13.80;99.90
3466;DHT22;1747;48.884;9.160;2024-02-15T09:41:01;14.00;99.90
3466;DHT22;1747;48.884;9.160;2024-02-15T09:44:31;14.10;99.90
3466;DHT22;1747;48.884;9.160;2024-02-15T09:47:34;14.20;99.90
3466;DHT22;1747;48.884;9.160;2024-02-15T09:50:22;14.40;99.90
3466;DHT22;1747;48.884;9.160;2024-02-15T09:53:22;14.50;99.90
3466;DHT22;1747;48.884;9.160;2024-02-15T09:57:20;14.70;99.90
3466;DHT22;1747;48.884;9.160;2024-02-15T09:59:27;14.70;99.90
3466;DHT22;1747;48.884;9.160;2024-02-15T10:01:59;14.80;99.90
3466;DHT22;1747;48.884;9.160;2024-02-15T10:04:32;14.90;99.90
3466;DHT22;1747;48.884;9.160;2024-02-15T10:07:04;15.00;99.90
3466;DHT22;1747;48.884;9.160;2024-02-15T10:09:30;14.90;99.90
3466;DHT22;1747;48.884;9.160;2024-02-15T10:11:58;15.10;99.90
3466;DHT22;1747;48.884;9.160;2024-02-15T10:14:26;15.20;99.90
3466;DHT22;1747;48.884;9.160;2024-02-15T10:16:54;15.20;99.90
3466;DHT22;1747;48.884;9.160;2024-02-15T10:19:21;15.30;99.90
3466;DHT22;1747;48.884;9.160;2024-02-15T10:21:52;15.40;99.90
3466;DHT22;1747;48.884;9.160;2024-02-15T10:24:22;15.50;99.90
3466;DHT22;1747;48.884;9.160;2024-02-15T10:26:50;15.70;99.90
3466;DHT22;1747;48.884;9.160;2024-02-15T10:29:18;15.80;99.90
3466;DHT22;1747;48.884;9.160;2024-02-15T10:31:53;15.90;99.90
3466;DHT22;1747;48.884;9.160;2024-02-15T10:34:21;15.80;99.90
3466;DHT22;1747;48.884;9.160;2024-02-15T10:36:48;16.00;99.90
3466;DHT22;1747;48.884;9.160;2024-02-15T10:39:18;16.00;99.90
3466;DHT22;1747;48.884;9.160;2024-02-15T10:41:46;16.00;99.90
3466;DHT22;1747;48.884;9.160;2024-02-15T10:44:17;16.10;99.90
3466;DHT22;1747;48.884;9.160;2024-02-15T10:46:46;16.20;99.90
3466;DHT22;1747;48.884;9.160;2024-02-15T10:49:17;16.10;99.90
3466;DHT22;1747;48.884;9.160;2024-02-15T10:51:45;15.90;99.90
3466;DHT22;1747;48.884;9.160;2024-02-15T10:54:25;16.00;99.90
3466;DHT22;1747;48.884;9.160;2024-02-15T10:57:03;16.20;99.90
3466;DHT22;1747;48.884;9.160;2024-02-15T10:59:32;16.40;99.90
3466;DHT22;1747;48.884;9.160;2024-02-15T11:02:09;16.70;99.90
3466;DHT22;1747;48.884;9.160;2024-02-15T11:04:41;16.80;99.90
3466;DHT22;1747;48.884;9.160;2024-02-15T11:07:10;17.00;99.90
3466;DHT22;1747;48.884;9.160;2024-02-15T11:09:39;17.00;99.90
3466;DHT22;1747;48.884;9.160;2024-02-15T11:12:06;17.20;99.90
3466;DHT22;1747;48.884;9.160;2024-02-15T11:14:35;17.10;99.90
3466;DHT22;1747;48.884;9.160;2024-02-15T11:17:02;17.10;99.90
3466;DHT22;1747;48.884;9.160;2024-02-15T11:19:43;17.20;99.90
3466;DHT22;1747;48.884;9.160;2024-02-15T11:22:13;17.30;99.90
3466;DHT22;1747;48.884;9.160;2024-02-15T11:24:47;17.40;99.90
3466;DHT22;1747;48.884;9.160;2024-02-15T11:27:25;17.50;99.90
3466;DHT22;1747;48.884;9.160;2024-02-15T11:29:54;17.50;99.90
3466;DHT22;1747;48.884;9.160;2024-02-15T11:32:40;17.30;99.90
3466;DHT22;1747;48.884;9.160;2024-02-15T11:35:11;17.40;99.90
3466;DHT22;1747;48.884;9.160;2024-02-15T11:37:50;17.20;99.90
3466;DHT22;1747;48.884;9.160;2024-02-15T11:40:21;17.20;99.90
3466;DHT22;1747;48.884;9.160;2024-02-15T11:42:49;17.30;99.90
3466;DHT22;1747;48.884;9.160;2024-02-15T11:45:16;17.40;99.90
3466;DHT22;1747;48.884;9.160;2024-02-15T11:47:48;17.50;99.90
3466;DHT22;1747;48.884;9.160;2024-02-15T11:50:16;17.50;99.90
3466;DHT22;1747;48.884;9.160;2024-02-15T11:52:43;17.40;99.90
3466;DHT22;1747;48.884;9.160;2024-02-15T11:55:12;17.20;99.90
3466;DHT22;1747;48.884;9.160;2024-02-15T11:57:40;17.50;99.90
3466;DHT22;1747;48.884;9.160;2024-02-15T12:00:21;17.60;99.90
3466;DHT22;1747;48.884;9.160;2024-02-15T12:03:06;17.70;99.90
3466;DHT22;1747;48.884;9.160;2024-02-15T12:05:51;17.80;99.90
3466;DHT22;1747;48.884;9.160;2024-02-15T12:08:35;17.90;99.90
3466;DHT22;1747;48.884;9.160;2024-02-15T12:11:20;17.70;99.90
3466;DHT22;1747;48.884;9.160;2024-02-15T12:14:05;18.00;99.90
3466;DHT22;1747;48.884;9.160;2024-02-15T12:17:00;18.20;99.90
3466;DHT22;1747;48.884;9.160;2024-02-15T12:19:46;18.30;99.90
3466;DHT22;1747;48.884;9.160;2024-02-15T12:22:14;18.40;99.90
3466;DHT22;1747;48.884;9.160;2024-02-15T12:24:41;18.70;99.90
3466;DHT22;1747;48.884;9.160;2024-02-15T12:27:08;18.80;99.90
3466;DHT22;1747;48.884;9.160;2024-02-15T12:29:36;19.20;99.90
3466;DHT22;1747;48.884;9.160;2024-02-15T12:32:03;19.40;99.90
3466;DHT22;1747;48.884;9.160;2024-02-15T12:34:30;19.30;99.90
3466;DHT22;1747;48.884;9.160;2024-02-15T12:37:06;19.60;99.90
3466;DHT22;1747;48.884;9.160;2024-02-15T12:39:34;19.50;99.90
3466;DHT22;1747;48.884;9.160;2024-02-15T12:42:02;19.40;99.90
3466;DHT22;1747;48.884;9.160;2024-02-15T12:44:29;19.20;99.90
3466;DHT22;1747;48.884;9.160;2024-02-15T12:47:00;19.30;99.90
3466;DHT22;1747;48.884;9.160;2024-02-15T12:49:30;19.20;99.90
3466;DHT22;1747;48.884;9.160;2024-02-15T12:55:09;19.20;99.90
3466;DHT22;1747;48.884;9.160;2024-02-15T12:57:36;19.10;99.90
3466;DHT22;1747;48.884;9.160;2024-02-15T13:00:07;19.30;99.90
3466;DHT22;1747;48.884;9.160;2024-02-15T13:02:38;19.10;99.90
3466;DHT22;1747;48.884;9.160;2024-02-15T13:05:06;19.30;99.90
3466;DHT22;1747;48.884;9.160;2024-02-15T13:07:33;19.50;99.90
3466;DHT22;1747;48.884;9.160;2024-02-15T13:10:01;19.80;99.90
3466;DHT22;1747;48.884;9.160;2024-02-15T13:12:29;20.00;99.90
3466;DHT22;1747;48.884;9.160;2024-02-15T13:14:56;20.10;99.90
3466;DHT22;1747;48.884;9.160;2024-02-15T13:17:23;20.20;99.90
3466;DHT22;1747;48.884;9.160;2024-02-15T13:19:53;20.10;99.90
3466;DHT22;1747;48.884;9.160;2024-02-15T13:22:30;20.20;99.90
3466;DHT22;1747;48.884;9.160;2024-02-15T13:24:57;20.20;99.90
3466;DHT22;1747;48.884;9.160;2024-02-15T13:27:24;20.20;99.90
3466;DHT22;1747;48.884;9.160;2024-02-15T13:29:51;20.30;99.90
3466;DHT22;1747;48.884;9.160;2024-02-15T13:32:18;20.30;99.90
3466;DHT22;1747;48.884;9.160;2024-02-15T13:34:47;20.40;99.90
3466;DHT22;1747;48.884;9.160;2024-02-15T13:37:19;20.10;99.90
3466;DHT22;1747;48.884;9.160;2024-02-15T13:39:47;20.10;99.90
3466;DHT22;1747;48.884;9.160;2024-02-15T13:42:14;19.70;99.90
3466;DHT22;1747;48.884;9.160;2024-02-15T13:44:42;19.70;99.90
3466;DHT22;1747;48.884;9.160;2024-02-15T13:47:09;19.70;99.90
3466;DHT22;1747;48.884;9.160;2024-02-15T13:49:37;19.70;99.90
3466;DHT22;1747;48.884;9.160;2024-02-15T13:52:05;19.60;99.90
3466;DHT22;1747;48.884;9.160;2024-02-15T13:54:33;19.70;99.90
3466;DHT22;1747;48.884;9.160;2024-02-15T13:57:00;19.80;99.90
3466;DHT22;1747;48.884;9.160;2024-02-15T13:59:28;19.70;99.90
3466;DHT22;1747;48.884;9.160;2024-02-15T14:01:55;19.80;99.90
3466;DHT22;1747;48.884;9.160;2024-02-15T14:04:22;19.90;99.90
3466;DHT22;1747;48.884;9.160;2024-02-15T14:06:49;20.10;99.90
3466;DHT22;1747;48.884;9.160;2024-02-15T14:09:16;20.00;99.90
3466;DHT22;1747;48.884;9.160;2024-02-15T14:11:44;20.00;99.90
3466;DHT22;1747;48.884;9.160;2024-02-15T14:14:11;20.00;99.90
3466;DHT22;1747;48.884;9.160;2024-02-15T14:16:38;20.00;99.90
3466;DHT22;1747;48.884;9.160;2024-02-15T14:19:05;20.10;99.90
3466;DHT22;1747;48.884;9.160;2024-02-15T14:21:32;20.10;99.90
3466;DHT22;1747;48.884;9.160;2024-02-15T14:24:05;20.10;99.90
3466;DHT22;1747;48.884;9.160;2024-02-15T14:26:34;20.00;99.90
3466;DHT22;1747;48.884;9.160;2024-02-15T14:29:02;19.70;99.90
3466;DHT22;1747;48.884;9.160;2024-02-15T14:31:31;19.60;99.90
3466;DHT22;1747;48.884;9.160;2024-02-15T14:34:15;19.50;99.90
3466;DHT22;1747;48.884;9.160;2024-02-15T14:36:43;19.50;99.90
3466;DHT22;1747;48.884;9.160;2024-02-15T14:39:11;19.50;99.90
3466;DHT22;1747;48.884;9.160;2024-02-15T14:41:39;19.60;99.90
3466;DHT22;1747;48.884;9.160;2024-02-15T14:44:09;19.50;99.90
3466;DHT22;1747;48.884;9.160;2024-02-15T14:46:36;19.50;99.90
3466;DHT22;1747;48.884;9.160;2024-02-15T14:49:03;19.50;99.90
3466;DHT22;1747;48.884;9.160;2024-02-15T14:51:30;19.60;99.90
3466;DHT22;1747;48.884;9.160;2024-02-15T14:53:58;19.70;99.90
3466;DHT22;1747;48.884;9.160;2024-02-15T14:56:25;19.70;99.90
3466;DHT22;1747;48.884;9.160;2024-02-15T14:58:52;19.80;99.90
3466;DHT22;1747;48.884;9.160;2024-02-15T15:01:21;19.80;99.90
3466;DHT22;1747;48.884;9.160;2024-02-15T15:03:53;19.80;99.90
3466;DHT22;1747;48.884;9.160;2024-02-15T15:06:23;19.70;99.90
3466;DHT22;1747;48.884;9.160;2024-02-15T15:09:07;19.70;99.90
3466;DHT22;1747;48.884;9.160;2024-02-15T15:11:52;19.70;99.90
3466;DHT22;1747;48.884;9.160;2024-02-15T15:14:36;19.70;99.90
3466;DHT22;1747;48.884;9.160;2024-02-15T15:17:05;19.70;99.90
3466;DHT22;1747;48.884;9.160;2024-02-15T15:19:32;19.70;99.90
3466;DHT22;1747;48.884;9.160;2024-02-15T15:21:58;19.30;99.90
3466;DHT22;1747;48.884;9.160;2024-02-15T15:24:25;19.00;99.90
3466;DHT22;1747;48.884;9.160;2024-02-15T15:26:52;18.90;99.90
3466;DHT22;1747;48.884;9.160;2024-02-15T15:29:19;18.90;99.90
3466;DHT22;1747;48.884;9.160;2024-02-15T15:31:46;18.90;99.90
3466;DHT22;1747;48.884;9.160;2024-02-15T15:34:14;19.00;99.90
3466;DHT22;1747;48.884;9.160;2024-02-15T15:36:42;19.00;99.90
3466;DHT22;1747;48.884;9.160;2024-02-15T15:39:09;18.90;99.90
3466;DHT22;1747;48.884;9.160;2024-02-15T15:41:36;18.70;99.90
3466;DHT22;1747;48.884;9.160;2024-02-15T15:44:05;18.60;99.90
3466;DHT22;1747;48.884;9.160;2024-02-15T15:46:32;18.40;99.90
3466;DHT22;1747;48.884;9.160;2024-02-15T15:48:59;18.40;99.90
3466;DHT22;1747;48.884;9.160;2024-02-15T15:51:28;18.40;99.90
3466;DHT22;1747;48.884;9.160;2024-02-15T15:53:55;18.40;99.90
3466;DHT22;1747;48.884;9.160;2024-02-15T15:56:21;18.30;99.90
3466;DHT22;1747;48.884;9.160;2024-02-15T15:58:48;18.30;99.90
3466;DHT22;1747;48.884;9.160;2024-02-15T16:01:15;18.20;99.90
3466;DHT22;1747;48.884;9.160;2024-02-15T16:03:47;18.20;99.90
3466;DHT22;1747;48.884;9.160;2024-02-15T16:06:14;18.10;99.90
3466;DHT22;1747;48.884;9.160;2024-02-15T16:08:42;18.00;99.90
3466;DHT22;1747;48.884;9.160;2024-02-15T16:11:11;18.00;99.90
3466;DHT22;1747;48.884;9.160;2024-02-15T16:13:40;17.90;99.90
3466;DHT22;1747;48.884;9.160;2024-02-15T16:16:08;17.80;99.90
3466;DHT22;1747;48.884;9.160;2024-02-15T16:18:35;17.60;99.90
3466;DHT22;1747;48.884;9.160;2024-02-15T16:21:03;17.50;99.90
3466;DHT22;1747;48.884;9.160;2024-02-15T16:23:30;17.40;99.90
3466;DHT22;1747;48.884;9.160;2024-02-15T16:25:59;17.30;99.90
3466;DHT22;1747;48.884;9.160;2024-02-15T16:28:25;17.30;99.90
3466;DHT22;1747;48.884;9.160;2024-02-15T16:30:52;17.20;99.90
3466;DHT22;1747;48.884;9.160;2024-02-15T16:33:19;17.10;99.90
3466;DHT22;1747;48.884;9.160;2024-02-15T16:35:46;17.00;99.90
3466;DHT22;1747;48.884;9.160;2024-02-15T16:38:13;17.00;99.90
3466;DHT22;1747;48.884;9.160;2024-02-15T16:40:41;16.90;99.90
3466;DHT22;1747;48.884;9.160;2024-02-15T16:43:10;16.80;99.90
3466;DHT22;1747;48.884;9.160;2024-02-15T16:45:37;16.80;99.90
3466;DHT22;1747;48.884;9.160;2024-02-15T16:48:05;16.70;99.90
3466;DHT22;1747;48.884;9.160;2024-02-15T16:50:32;16.70;99.90
3466;DHT22;1747;48.884;9.160;2024-02-15T16:53:00;16.60;99.90
3466;DHT22;1747;48.884;9.160;2024-02-15T16:55:27;16.60;99.90